sensor_id;sensor_type;location;lat;lon;timestamp;temperature;humidity
18388;DHT22;9320;50.256;19.026;2023-07-29T00:02:16;18.50;99.90
18388;DHT22;9320;50.256;19.026;2023-07-29T00:04:44;18.50;99.90
18388;DHT22;9320;50.256;19.026;2023-07-29T00:07:12;18.50;99.90
18388;DHT22;9320;50.256;19.026;2023-07-29T00:09:40;18.50;99.90
18388;DHT22;9320;50.256;19.026;2023-07-29T00:12:08;18.60;99.90
18388;DHT22;9320;50.256;19.026;2023-07-29T00:14:36;18.60;99.90
18388;DHT22;9320;50.256;19.026;2023-07-29T00:17:05;18.60;99.90
18388;DHT22;9320;50.256;19.026;2023-07-29T00:19:33;18.60;99.90
18388;DHT22;9320;50.256;19.026;2023-07-29T00:22:01;18.60;99.90
18388;DHT22;9320;50.256;19.026;2023-07-29T00:24:30;18.60;99.90
18388;DHT22;9320;50.256;19.026;2023-07-29T00:26:58;18.60;99.90
18388;DHT22;9320;50.256;19.026;2023-07-29T00:29:26;18.70;99.90
18388;DHT22;9320;50.256;19.026;2023-07-29T00:31:54;18.80;99.90
18388;DHT22;9320;50.256;19.026;2023-07-29T00:34:23;18.70;99.90
18388;DHT22;9320;50.256;19.026;2023-07-29T00:36:51;18.70;99.90
18388;DHT22;9320;50.256;19.026;2023-07-29T00:39:19;18.70;99.90
18388;DHT22;9320;50.256;19.026;2023-07-29T00:41:47;18.80;99.90
18388;DHT22;9320;50.256;19.026;2023-07-29T00:44:15;18.80;99.90
18388;DHT22;9320;50.256;19.026;2023-07-29T00:46:46;18.80;99.90
18388;DHT22;9320;50.256;19.026;2023-07-29T00:49:15;18.80;99.90
18388;DHT22;9320;50.256;19.026;2023-07-29T00:51:44;18.80;99.90
18388;DHT22;9320;50.256;19.026;2023-07-29T00:54:13;18.80;99.90
18388;DHT22;9320;50.256;19.026;2023-07-29T00:56:41;18.80;99.90
18388;DHT22;9320;50.256;19.026;2023-07-29T00:59:09;18.80;99.90
18388;DHT22;9320;50.256;19.026;2023-07-29T01:01:37;18.80;99.90
18388;DHT22;9320;50.256;19.026;2023-07-29T01:04:06;18.90;99.90
18388;DHT22;9320;50.256;19.026;2023-07-29T01:06:41;18.90;99.90
18388;DHT22;9320;50.256;19.026;2023-07-29T01:09:19;18.90;99.90
18388;DHT22;9320;50.256;19.026;2023-07-29T01:12:07;18.90;99.90
18388;DHT22;9320;50.256;19.026;2023-07-29T01:14:41;18.90;99.90
18388;DHT22;9320;50.256;19.026;2023-07-29T01:17:15;18.90;99.90
18388;DHT22;9320;50.256;19.026;2023-07-29T01:20:00;18.90;99.90
18388;DHT22;9320;50.256;19.026;2023-07-29T01:22:29;19.00;99.90
18388;DHT22;9320;50.256;19.026;2023-07-29T01:24:59;19.00;99.90
18388;DHT22;9320;50.256;19.026;2023-07-29T01:27:28;19.00;99.90
18388;DHT22;9320;50.256;19.026;2023-07-29T01:29:57;19.00;99.90
18388;DHT22;9320;50.256;19.026;2023-07-29T01:32:31;19.00;99.90
18388;DHT22;9320;50.256;19.026;2023-07-29T01:35:10;18.90;99.90
18388;DHT22;9320;50.256;19.026;2023-07-29T01:37:40;19.00;99.90
18388;DHT22;9320;50.256;19.026;2023-07-29T01:40:11;19.00;99.90
18388;DHT22;9320;50.256;19.026;2023-07-29T01:42:39;19.00;99.90
18388;DHT22;9320;50.256;19.026;2023-07-29T01:45:07;19.00;99.90
18388;DHT22;9320;50.256;19.026;2023-07-29T01:47:36;18.90;99.90
18388;DHT22;9320;50.256;19.026;2023-07-29T01:50:09;18.80;99.90
18388;DHT22;9320;50.256;19.026;2023-07-29T01:52:37;18.90;99.90
18388;DHT22;9320;50.256;19.026;2023-07-29T01:55:06;18.80;99.90
18388;DHT22;9320;50.256;19.026;2023-07-29T01:57:35;18.80;99.90
18388;DHT22;9320;50.256;19.026;2023-07-29T02:00:04;18.80;99.90
18388;DHT22;9320;50.256;19.026;2023-07-29T02:02:32;18.80;99.90
18388;DHT22;9320;50.256;19.026;2023-07-29T02:05:00;18.80;99.90
18388;DHT22;9320;50.256;19.026;2023-07-29T02:07:28;18.80;99.90
18388;DHT22;9320;50.256;19.026;2023-07-29T02:09:56;18.80;99.90
18388;DHT22;9320;50.256;19.026;2023-07-29T02:12:24;18.80;99.90
18388;DHT22;9320;50.256;19.026;2023-07-29T02:14:53;18.80;99.90
18388;DHT22;9320;50.256;19.026;2023-07-29T02:17:21;18.90;99.90
18388;DHT22;9320;50.256;19.026;2023-07-29T02:19:49;18.90;99.90
18388;DHT22;9320;50.256;19.026;2023-07-29T02:22:18;18.90;99.90
18388;DHT22;9320;50.256;19.026;2023-07-29T02:24:46;18.90;99.90
18388;DHT22;9320;50.256;19.026;2023-07-29T02:27:14;18.90;99.90
18388;DHT22;9320;50.256;19.026;2023-07-29T02:29:42;18.90;99.90
18388;DHT22;9320;50.256;19.026;2023-07-29T02:32:11;18.90;99.90
18388;DHT22;9320;50.256;19.026;2023-07-29T02:34:39;18.90;99.90
18388;DHT22;9320;50.256;19.026;2023-07-29T02:37:07;18.90;99.90
18388;DHT22;9320;50.256;19.026;2023-07-29T02:39:36;18.90;99.90
18388;DHT22;9320;50.256;19.026;2023-07-29T02:42:04;18.90;99.90
18388;DHT22;9320;50.256;19.026;2023-07-29T02:44:32;18.90;99.90
18388;DHT22;9320;50.256;19.026;2023-07-29T02:47:00;18.90;99.90
18388;DHT22;9320;50.256;19.026;2023-07-29T02:49:30;18.90;99.90
18388;DHT22;9320;50.256;19.026;2023-07-29T02:51:58;18.90;99.90
18388;DHT22;9320;50.256;19.026;2023-07-29T02:54:26;18.80;99.90
18388;DHT22;9320;50.256;19.026;2023-07-29T02:56:54;18.80;99.90
18388;DHT22;9320;50.256;19.026;2023-07-29T02:59:22;18.70;99.90
18388;DHT22;9320;50.256;19.026;2023-07-29T03:01:50;18.80;99.90
18388;DHT22;9320;50.256;19.026;2023-07-29T03:04:18;18.70;99.90
18388;DHT22;9320;50.256;19.026;2023-07-29T03:06:47;18.70;99.90
18388;DHT22;9320;50.256;19.026;2023-07-29T03:09:15;18.70;99.90
18388;DHT22;9320;50.256;19.026;2023-07-29T03:11:43;18.70;99.90
18388;DHT22;9320;50.256;19.026;2023-07-29T03:14:12;18.60;99.90
18388;DHT22;9320;50.256;19.026;2023-07-29T03:16:40;18.60;99.90
18388;DHT22;9320;50.256;19.026;2023-07-29T03:19:08;18.60;99.90
18388;DHT22;9320;50.256;19.026;2023-07-29T03:21:37;18.60;99.90
18388;DHT22;9320;50.256;19.026;2023-07-29T03:24:06;18.50;99.90
18388;DHT22;9320;50.256;19.026;2023-07-29T03:26:34;18.50;99.90
18388;DHT22;9320;50.256;19.026;2023-07-29T03:29:03;18.50;99.90
18388;DHT22;9320;50.256;19.026;2023-07-29T03:31:31;18.50;99.90
18388;DHT22;9320;50.256;19.026;2023-07-29T03:33:59;18.50;99.90
18388;DHT22;9320;50.256;19.026;2023-07-29T03:36:27;18.50;99.90
18388;DHT22;9320;50.256;19.026;2023-07-29T03:38:55;18.50;99.90
18388;DHT22;9320;50.256;19.026;2023-07-29T03:41:24;18.60;99.90
18388;DHT22;9320;50.256;19.026;2023-07-29T03:43:52;18.60;99.90
18388;DHT22;9320;50.256;19.026;2023-07-29T03:46:20;18.60;99.90
18388;DHT22;9320;50.256;19.026;2023-07-29T03:48:49;18.70;99.90
18388;DHT22;9320;50.256;19.026;2023-07-29T03:51:17;18.70;99.90
18388;DHT22;9320;50.256;19.026;2023-07-29T03:53:45;18.80;99.90
18388;DHT22;9320;50.256;19.026;2023-07-29T03:56:13;18.80;99.90
18388;DHT22;9320;50.256;19.026;2023-07-29T03:58:42;18.70;99.90
18388;DHT22;9320;50.256;19.026;2023-07-29T04:01:11;18.80;99.90
18388;DHT22;9320;50.256;19.026;2023-07-29T04:03:39;18.70;99.90
18388;DHT22;9320;50.256;19.026;2023-07-29T04:06:07;18.70;99.90
18388;DHT22;9320;50.256;19.026;2023-07-29T04:08:35;18.80;99.90
18388;DHT22;9320;50.256;19.026;2023-07-29T04:11:03;18.90;99.90
18388;DHT22;9320;50.256;19.026;2023-07-29T04:13:31;18.90;99.90
18388;DHT22;9320;50.256;19.026;2023-07-29T04:16:00;18.90;99.90
18388;DHT22;9320;50.256;19.026;2023-07-29T04:18:29;18.90;99.90
18388;DHT22;9320;50.256;19.026;2023-07-29T04:20:57;19.00;99.90
18388;DHT22;9320;50.256;19.026;2023-07-29T04:23:25;19.00;99.90
18388;DHT22;9320;50.256;19.026;2023-07-29T04:25:53;19.20;99.90
18388;DHT22;9320;50.256;19.026;2023-07-29T04:28:21;19.30;99.90
18388;DHT22;9320;50.256;19.026;2023-07-29T04:30:49;19.40;99.90
18388;DHT22;9320;50.256;19.026;2023-07-29T04:33:18;19.50;99.90
18388;DHT22;9320;50.256;19.026;2023-07-29T04:35:46;19.50;99.90
18388;DHT22;9320;50.256;19.026;2023-07-29T04:38:14;19.50;99.90
18388;DHT22;9320;50.256;19.026;2023-07-29T04:40:42;19.50;99.90
18388;DHT22;9320;50.256;19.026;2023-07-29T04:43:10;19.40;99.90
18388;DHT22;9320;50.256;19.026;2023-07-29T04:45:42;19.50;99.90
18388;DHT22;9320;50.256;19.026;2023-07-29T04:48:10;19.50;99.90
18388;DHT22;9320;50.256;19.026;2023-07-29T04:50:40;19.50;99.90
18388;DHT22;9320;50.256;19.026;2023-07-29T04:53:08;19.60;99.90
18388;DHT22;9320;50.256;19.026;2023-07-29T04:55:36;19.60;99.90
18388;DHT22;9320;50.256;19.026;2023-07-29T04:58:04;19.60;99.90
18388;DHT22;9320;50.256;19.026;2023-07-29T05:00:32;19.70;99.90
18388;DHT22;9320;50.256;19.026;2023-07-29T05:03:00;19.70;99.90
18388;DHT22;9320;50.256;19.026;2023-07-29T05:05:29;19.90;99.90
18388;DHT22;9320;50.256;19.026;2023-07-29T05:07:58;19.90;99.90
18388;DHT22;9320;50.256;19.026;2023-07-29T05:10:26;19.90;99.90
18388;DHT22;9320;50.256;19.026;2023-07-29T05:12:54;20.00;99.90
18388;DHT22;9320;50.256;19.026;2023-07-29T05:15:22;20.00;99.90
18388;DHT22;9320;50.256;19.026;2023-07-29T05:17:50;20.10;99.90
18388;DHT22;9320;50.256;19.026;2023-07-29T05:20:18;20.10;99.90
18388;DHT22;9320;50.256;19.026;2023-07-29T05:22:46;20.30;99.90
18388;DHT22;9320;50.256;19.026;2023-07-29T05:25:16;20.40;99.90
18388;DHT22;9320;50.256;19.026;2023-07-29T05:27:44;20.40;99.90
18388;DHT22;9320;50.256;19.026;2023-07-29T05:30:12;20.40;99.90
18388;DHT22;9320;50.256;19.026;2023-07-29T05:32:40;20.50;99.90
18388;DHT22;9320;50.256;19.026;2023-07-29T05:35:08;20.60;99.90
18388;DHT22;9320;50.256;19.026;2023-07-29T05:37:38;20.70;99.90
18388;DHT22;9320;50.256;19.026;2023-07-29T05:40:07;20.90;99.90
18388;DHT22;9320;50.256;19.026;2023-07-29T05:42:37;21.00;99.90
18388;DHT22;9320;50.256;19.026;2023-07-29T05:45:06;21.10;99.90
18388;DHT22;9320;50.256;19.026;2023-07-29T05:47:35;21.20;99.90
18388;DHT22;9320;50.256;19.026;2023-07-29T05:50:03;21.30;99.90
18388;DHT22;9320;50.256;19.026;2023-07-29T05:52:32;21.30;99.90
18388;DHT22;9320;50.256;19.026;2023-07-29T05:55:00;21.40;99.90
18388;DHT22;9320;50.256;19.026;2023-07-29T05:57:28;21.50;99.90
18388;DHT22;9320;50.256;19.026;2023-07-29T05:59:57;21.50;99.90
18388;DHT22;9320;50.256;19.026;2023-07-29T06:02:25;21.50;99.90
18388;DHT22;9320;50.256;19.026;2023-07-29T06:04:53;21.60;99.90
18388;DHT22;9320;50.256;19.026;2023-07-29T06:07:21;21.50;99.90
18388;DHT22;9320;50.256;19.026;2023-07-29T06:09:49;21.50;99.90
18388;DHT22;9320;50.256;19.026;2023-07-29T06:12:18;21.50;99.90
18388;DHT22;9320;50.256;19.026;2023-07-29T06:14:46;21.60;99.90
18388;DHT22;9320;50.256;19.026;2023-07-29T06:17:15;21.60;99.90
18388;DHT22;9320;50.256;19.026;2023-07-29T06:19:43;21.70;99.90
18388;DHT22;9320;50.256;19.026;2023-07-29T06:22:11;21.90;99.90
18388;DHT22;9320;50.256;19.026;2023-07-29T06:24:39;22.10;99.90
18388;DHT22;9320;50.256;19.026;2023-07-29T06:27:07;22.10;99.90
18388;DHT22;9320;50.256;19.026;2023-07-29T06:29:35;22.10;99.90
18388;DHT22;9320;50.256;19.026;2023-07-29T06:32:04;22.10;99.90
18388;DHT22;9320;50.256;19.026;2023-07-29T06:34:34;22.00;99.90
18388;DHT22;9320;50.256;19.026;2023-07-29T06:37:02;22.10;99.90
18388;DHT22;9320;50.256;19.026;2023-07-29T06:39:30;22.20;99.90
18388;DHT22;9320;50.256;19.026;2023-07-29T06:41:58;22.50;99.90
18388;DHT22;9320;50.256;19.026;2023-07-29T06:44:26;22.60;99.90
18388;DHT22;9320;50.256;19.026;2023-07-29T06:46:54;22.90;99.90
18388;DHT22;9320;50.256;19.026;2023-07-29T06:49:22;23.30;99.90
18388;DHT22;9320;50.256;19.026;2023-07-29T06:51:51;23.60;99.90
18388;DHT22;9320;50.256;19.026;2023-07-29T06:54:24;23.90;99.90
18388;DHT22;9320;50.256;19.026;2023-07-29T06:56:52;24.00;99.90
18388;DHT22;9320;50.256;19.026;2023-07-29T06:59:20;23.90;99.90
18388;DHT22;9320;50.256;19.026;2023-07-29T07:01:48;23.70;99.90
18388;DHT22;9320;50.256;19.026;2023-07-29T07:04:17;23.60;99.90
18388;DHT22;9320;50.256;19.026;2023-07-29T07:06:45;23.40;99.90
18388;DHT22;9320;50.256;19.026;2023-07-29T07:09:14;23.30;99.90
18388;DHT22;9320;50.256;19.026;2023-07-29T07:11:42;23.20;99.90
18388;DHT22;9320;50.256;19.026;2023-07-29T07:14:10;23.10;99.90
18388;DHT22;9320;50.256;19.026;2023-07-29T07:16:38;23.00;99.90
18388;DHT22;9320;50.256;19.026;2023-07-29T07:19:07;23.00;99.90
18388;DHT22;9320;50.256;19.026;2023-07-29T07:21:35;23.00;99.90
18388;DHT22;9320;50.256;19.026;2023-07-29T07:24:03;23.00;99.90
18388;DHT22;9320;50.256;19.026;2023-07-29T07:26:32;22.90;99.90
18388;DHT22;9320;50.256;19.026;2023-07-29T07:29:00;22.70;99.90
18388;DHT22;9320;50.256;19.026;2023-07-29T07:31:33;22.60;99.90
18388;DHT22;9320;50.256;19.026;2023-07-29T07:34:02;22.50;99.90
18388;DHT22;9320;50.256;19.026;2023-07-29T07:36:30;22.50;99.90
18388;DHT22;9320;50.256;19.026;2023-07-29T07:38:58;22.50;99.90
18388;DHT22;9320;50.256;19.026;2023-07-29T07:41:26;22.60;99.90
18388;DHT22;9320;50.256;19.026;2023-07-29T07:43:56;22.60;99.90
18388;DHT22;9320;50.256;19.026;2023-07-29T07:46:24;22.80;99.90
18388;DHT22;9320;50.256;19.026;2023-07-29T07:48:52;22.90;99.90
18388;DHT22;9320;50.256;19.026;2023-07-29T07:51:20;23.10;99.90
18388;DHT22;9320;50.256;19.026;2023-07-29T07:53:48;23.50;99.90
18388;DHT22;9320;50.256;19.026;2023-07-29T07:56:17;23.90;99.90
18388;DHT22;9320;50.256;19.026;2023-07-29T07:58:45;24.20;99.90
18388;DHT22;9320;50.256;19.026;2023-07-29T08:01:14;24.40;99.90
18388;DHT22;9320;50.256;19.026;2023-07-29T08:03:42;24.50;99.90
18388;DHT22;9320;50.256;19.026;2023-07-29T08:06:10;24.50;99.90
18388;DHT22;9320;50.256;19.026;2023-07-29T08:08:38;24.40;99.90
18388;DHT22;9320;50.256;19.026;2023-07-29T08:11:06;24.70;99.90
18388;DHT22;9320;50.256;19.026;2023-07-29T08:13:34;25.00;99.90
18388;DHT22;9320;50.256;19.026;2023-07-29T08:16:02;25.60;96.40
18388;DHT22;9320;50.256;19.026;2023-07-29T08:18:33;26.00;95.70
18388;DHT22;9320;50.256;19.026;2023-07-29T08:21:01;26.10;95.00
18388;DHT22;9320;50.256;19.026;2023-07-29T08:23:31;26.30;94.40
18388;DHT22;9320;50.256;19.026;2023-07-29T08:26:01;26.70;94.20
18388;DHT22;9320;50.256;19.026;2023-07-29T08:28:31;27.00;92.60
18388;DHT22;9320;50.256;19.026;2023-07-29T08:31:00;27.40;92.90
18388;DHT22;9320;50.256;19.026;2023-07-29T08:33:30;27.70;91.50
18388;DHT22;9320;50.256;19.026;2023-07-29T08:35:59;27.60;90.60
18388;DHT22;9320;50.256;19.026;2023-07-29T08:38:28;27.60;90.50
18388;DHT22;9320;50.256;19.026;2023-07-29T08:40:59;27.60;90.80
18388;DHT22;9320;50.256;19.026;2023-07-29T08:43:33;27.50;90.70
18388;DHT22;9320;50.256;19.026;2023-07-29T08:46:01;27.30;91.10
18388;DHT22;9320;50.256;19.026;2023-07-29T08:48:32;27.20;90.90
18388;DHT22;9320;50.256;19.026;2023-07-29T08:51:03;27.20;91.20
18388;DHT22;9320;50.256;19.026;2023-07-29T08:53:32;27.10;90.80
18388;DHT22;9320;50.256;19.026;2023-07-29T08:56:01;27.00;91.30
18388;DHT22;9320;50.256;19.026;2023-07-29T08:58:29;27.10;91.10
18388;DHT22;9320;50.256;19.026;2023-07-29T09:00:57;27.10;90.50
18388;DHT22;9320;50.256;19.026;2023-07-29T09:03:25;27.20;90.00
18388;DHT22;9320;50.256;19.026;2023-07-29T09:05:55;27.30;90.10
18388;DHT22;9320;50.256;19.026;2023-07-29T09:08:26;27.30;90.00
18388;DHT22;9320;50.256;19.026;2023-07-29T09:10:54;27.50;90.80
18388;DHT22;9320;50.256;19.026;2023-07-29T09:13:23;27.80;90.20
18388;DHT22;9320;50.256;19.026;2023-07-29T09:15:54;27.90;89.10
18388;DHT22;9320;50.256;19.026;2023-07-29T09:18:22;27.60;89.30
18388;DHT22;9320;50.256;19.026;2023-07-29T09:20:50;27.40;88.80
18388;DHT22;9320;50.256;19.026;2023-07-29T09:23:18;27.50;89.60
18388;DHT22;9320;50.256;19.026;2023-07-29T09:25:47;27.90;88.40
18388;DHT22;9320;50.256;19.026;2023-07-29T09:28:16;28.30;85.70
18388;DHT22;9320;50.256;19.026;2023-07-29T09:30:46;28.10;83.50
18388;DHT22;9320;50.256;19.026;2023-07-29T09:33:15;28.00;81.40
18388;DHT22;9320;50.256;19.026;2023-07-29T09:35:44;28.00;77.50
18388;DHT22;9320;50.256;19.026;2023-07-29T09:38:14;28.20;78.10
18388;DHT22;9320;50.256;19.026;2023-07-29T09:40:43;28.60;75.10
18388;DHT22;9320;50.256;19.026;2023-07-29T09:43:17;29.80;73.30
18388;DHT22;9320;50.256;19.026;2023-07-29T09:45:46;32.10;71.00
18388;DHT22;9320;50.256;19.026;2023-07-29T09:48:14;34.60;66.10
18388;DHT22;9320;50.256;19.026;2023-07-29T09:50:42;35.60;58.80
18388;DHT22;9320;50.256;19.026;2023-07-29T09:53:10;35.00;57.10
18388;DHT22;9320;50.256;19.026;2023-07-29T09:55:39;33.20;58.90
18388;DHT22;9320;50.256;19.026;2023-07-29T09:58:07;31.70;62.20
18388;DHT22;9320;50.256;19.026;2023-07-29T10:00:36;30.40;64.70
18388;DHT22;9320;50.256;19.026;2023-07-29T10:03:06;29.70;67.10
18388;DHT22;9320;50.256;19.026;2023-07-29T10:05:34;33.50;61.10
18388;DHT22;9320;50.256;19.026;2023-07-29T10:08:03;37.50;51.80
18388;DHT22;9320;50.256;19.026;2023-07-29T10:10:32;40.90;45.40
18388;DHT22;9320;50.256;19.026;2023-07-29T10:13:00;40.80;43.50
18388;DHT22;9320;50.256;19.026;2023-07-29T10:15:29;37.50;47.20
18388;DHT22;9320;50.256;19.026;2023-07-29T10:18:01;36.70;49.40
18388;DHT22;9320;50.256;19.026;2023-07-29T10:20:30;35.90;51.90
18388;DHT22;9320;50.256;19.026;2023-07-29T10:23:00;39.00;47.40
18388;DHT22;9320;50.256;19.026;2023-07-29T10:25:38;42.60;43.00
18388;DHT22;9320;50.256;19.026;2023-07-29T10:28:08;44.30;37.80
18388;DHT22;9320;50.256;19.026;2023-07-29T10:30:36;40.80;39.80
18388;DHT22;9320;50.256;19.026;2023-07-29T10:33:06;38.40;44.00
18388;DHT22;9320;50.256;19.026;2023-07-29T10:35:35;37.60;48.30
18388;DHT22;9320;50.256;19.026;2023-07-29T10:38:05;37.80;47.70
18388;DHT22;9320;50.256;19.026;2023-07-29T10:40:47;37.60;49.10
18388;DHT22;9320;50.256;19.026;2023-07-29T10:43:19;36.30;48.80
18388;DHT22;9320;50.256;19.026;2023-07-29T10:45:51;34.50;51.40
18388;DHT22;9320;50.256;19.026;2023-07-29T10:48:51;33.10;54.30
18388;DHT22;9320;50.256;19.026;2023-07-29T10:51:27;32.40;56.30
18388;DHT22;9320;50.256;19.026;2023-07-29T10:53:58;31.60;57.80
18388;DHT22;9320;50.256;19.026;2023-07-29T10:56:28;31.30;59.30
18388;DHT22;9320;50.256;19.026;2023-07-29T10:59:02;30.90;61.00
18388;DHT22;9320;50.256;19.026;2023-07-29T11:01:31;30.60;60.40
18388;DHT22;9320;50.256;19.026;2023-07-29T11:07:24;30.40;61.50
18388;DHT22;9320;50.256;19.026;2023-07-29T11:10:00;30.30;62.40
18388;DHT22;9320;50.256;19.026;2023-07-29T11:12:49;30.20;63.10
18388;DHT22;9320;50.256;19.026;2023-07-29T11:15:21;30.10;63.90
18388;DHT22;9320;50.256;19.026;2023-07-29T11:17:51;30.00;62.20
18388;DHT22;9320;50.256;19.026;2023-07-29T11:20:20;29.80;62.80
18388;DHT22;9320;50.256;19.026;2023-07-29T11:22:52;29.50;64.00
18388;DHT22;9320;50.256;19.026;2023-07-29T11:25:22;29.40;64.10
18388;DHT22;9320;50.256;19.026;2023-07-29T11:27:52;29.30;63.20
18388;DHT22;9320;50.256;19.026;2023-07-29T11:30:20;29.20;63.50
18388;DHT22;9320;50.256;19.026;2023-07-29T11:32:50;29.10;65.00
18388;DHT22;9320;50.256;19.026;2023-07-29T11:35:18;29.20;65.80
18388;DHT22;9320;50.256;19.026;2023-07-29T11:37:47;29.00;66.30
18388;DHT22;9320;50.256;19.026;2023-07-29T11:40:18;29.10;66.70
18388;DHT22;9320;50.256;19.026;2023-07-29T11:42:47;29.20;66.50
18388;DHT22;9320;50.256;19.026;2023-07-29T11:45:17;29.10;66.00
18388;DHT22;9320;50.256;19.026;2023-07-29T11:47:46;28.80;65.70
18388;DHT22;9320;50.256;19.026;2023-07-29T11:50:14;28.60;65.90
18388;DHT22;9320;50.256;19.026;2023-07-29T11:52:44;28.40;66.80
18388;DHT22;9320;50.256;19.026;2023-07-29T11:55:13;28.40;67.70
18388;DHT22;9320;50.256;19.026;2023-07-29T11:57:43;28.30;68.30
18388;DHT22;9320;50.256;19.026;2023-07-29T12:00:12;28.40;67.50
18388;DHT22;9320;50.256;19.026;2023-07-29T12:02:42;28.70;67.10
18388;DHT22;9320;50.256;19.026;2023-07-29T12:05:13;28.80;67.40
18388;DHT22;9320;50.256;19.026;2023-07-29T12:07:43;28.80;66.50
18388;DHT22;9320;50.256;19.026;2023-07-29T12:10:12;28.80;66.70
18388;DHT22;9320;50.256;19.026;2023-07-29T12:12:45;28.70;66.50
18388;DHT22;9320;50.256;19.026;2023-07-29T12:15:22;28.70;66.00
18388;DHT22;9320;50.256;19.026;2023-07-29T12:17:53;28.80;66.80
18388;DHT22;9320;50.256;19.026;2023-07-29T12:20:23;28.80;66.70
18388;DHT22;9320;50.256;19.026;2023-07-29T12:22:52;28.70;66.10
18388;DHT22;9320;50.256;19.026;2023-07-29T12:25:21;28.50;66.50
18388;DHT22;9320;50.256;19.026;2023-07-29T12:27:50;28.50;66.40
18388;DHT22;9320;50.256;19.026;2023-07-29T12:30:21;28.70;66.70
18388;DHT22;9320;50.256;19.026;2023-07-29T12:32:49;28.70;66.10
18388;DHT22;9320;50.256;19.026;2023-07-29T12:35:17;28.50;66.40
18388;DHT22;9320;50.256;19.026;2023-07-29T12:37:45;28.30;66.90
18388;DHT22;9320;50.256;19.026;2023-07-29T12:40:23;28.40;67.20
18388;DHT22;9320;50.256;19.026;2023-07-29T12:42:53;28.30;66.90
18388;DHT22;9320;50.256;19.026;2023-07-29T12:45:21;28.30;66.70
18388;DHT22;9320;50.256;19.026;2023-07-29T12:47:53;28.20;67.20
18388;DHT22;9320;50.256;19.026;2023-07-29T12:50:21;28.00;68.20
18388;DHT22;9320;50.256;19.026;2023-07-29T12:52:49;28.00;68.20
18388;DHT22;9320;50.256;19.026;2023-07-29T12:55:17;28.00;66.60
18388;DHT22;9320;50.256;19.026;2023-07-29T12:57:50;27.90;66.40
18388;DHT22;9320;50.256;19.026;2023-07-29T13:00:19;27.80;67.50
18388;DHT22;9320;50.256;19.026;2023-07-29T13:02:47;27.70;67.90
18388;DHT22;9320;50.256;19.026;2023-07-29T13:05:17;27.60;69.00
18388;DHT22;9320;50.256;19.026;2023-07-29T13:07:45;27.60;69.40
18388;DHT22;9320;50.256;19.026;2023-07-29T13:10:14;27.60;69.20
18388;DHT22;9320;50.256;19.026;2023-07-29T13:12:42;27.80;69.40
18388;DHT22;9320;50.256;19.026;2023-07-29T13:15:10;28.00;68.70
18388;DHT22;9320;50.256;19.026;2023-07-29T13:17:39;28.20;67.70
18388;DHT22;9320;50.256;19.026;2023-07-29T13:20:08;28.30;67.40
18388;DHT22;9320;50.256;19.026;2023-07-29T13:22:36;28.30;65.50
18388;DHT22;9320;50.256;19.026;2023-07-29T13:25:05;28.20;66.20
18388;DHT22;9320;50.256;19.026;2023-07-29T13:27:33;28.30;65.90
18388;DHT22;9320;50.256;19.026;2023-07-29T13:30:01;28.40;65.20
18388;DHT22;9320;50.256;19.026;2023-07-29T13:32:29;28.20;65.00
18388;DHT22;9320;50.256;19.026;2023-07-29T13:34:58;28.00;65.70
18388;DHT22;9320;50.256;19.026;2023-07-29T13:37:26;27.90;66.60
18388;DHT22;9320;50.256;19.026;2023-07-29T13:39:54;27.90;66.90
18388;DHT22;9320;50.256;19.026;2023-07-29T13:42:22;27.90;66.80
18388;DHT22;9320;50.256;19.026;2023-07-29T13:44:50;27.90;66.60
18388;DHT22;9320;50.256;19.026;2023-07-29T13:47:18;27.80;66.10
18388;DHT22;9320;50.256;19.026;2023-07-29T13:49:46;27.70;65.50
18388;DHT22;9320;50.256;19.026;2023-07-29T13:52:16;27.80;65.90
18388;DHT22;9320;50.256;19.026;2023-07-29T13:54:44;27.90;64.50
18388;DHT22;9320;50.256;19.026;2023-07-29T13:57:12;27.90;65.00
18388;DHT22;9320;50.256;19.026;2023-07-29T13:59:40;27.90;66.10
18388;DHT22;9320;50.256;19.026;2023-07-29T14:02:08;27.90;66.50
18388;DHT22;9320;50.256;19.026;2023-07-29T14:04:36;27.70;67.20
18388;DHT22;9320;50.256;19.026;2023-07-29T14:07:04;27.70;67.90
18388;DHT22;9320;50.256;19.026;2023-07-29T14:09:34;27.50;67.80
18388;DHT22;9320;50.256;19.026;2023-07-29T14:12:03;27.60;68.00
18388;DHT22;9320;50.256;19.026;2023-07-29T14:14:31;27.80;67.40
18388;DHT22;9320;50.256;19.026;2023-07-29T14:16:59;27.70;66.60
18388;DHT22;9320;50.256;19.026;2023-07-29T14:19:27;27.70;67.00
18388;DHT22;9320;50.256;19.026;2023-07-29T14:21:55;27.70;66.60
18388;DHT22;9320;50.256;19.026;2023-07-29T14:24:23;27.70;66.70
18388;DHT22;9320;50.256;19.026;2023-07-29T14:26:53;27.60;67.10
18388;DHT22;9320;50.256;19.026;2023-07-29T14:29:21;27.50;67.60
18388;DHT22;9320;50.256;19.026;2023-07-29T14:31:49;27.50;67.90
18388;DHT22;9320;50.256;19.026;2023-07-29T14:34:17;27.60;67.50
18388;DHT22;9320;50.256;19.026;2023-07-29T14:36:45;27.60;66.50
18388;DHT22;9320;50.256;19.026;2023-07-29T14:39:13;27.50;66.00
18388;DHT22;9320;50.256;19.026;2023-07-29T14:41:41;27.50;66.10
18388;DHT22;9320;50.256;19.026;2023-07-29T14:44:11;27.60;67.00
18388;DHT22;9320;50.256;19.026;2023-07-29T14:46:38;27.60;67.30
18388;DHT22;9320;50.256;19.026;2023-07-29T14:49:07;27.50;68.00
18388;DHT22;9320;50.256;19.026;2023-07-29T14:51:35;27.50;68.30
18388;DHT22;9320;50.256;19.026;2023-07-29T14:54:04;27.40;68.30
18388;DHT22;9320;50.256;19.026;2023-07-29T14:56:32;27.40;68.60
18388;DHT22;9320;50.256;19.026;2023-07-29T14:59:00;27.40;68.80
18388;DHT22;9320;50.256;19.026;2023-07-29T15:01:30;27.40;68.90
18388;DHT22;9320;50.256;19.026;2023-07-29T15:03:58;27.50;69.00
18388;DHT22;9320;50.256;19.026;2023-07-29T15:06:26;27.60;68.80
18388;DHT22;9320;50.256;19.026;2023-07-29T15:08:54;27.60;68.90
18388;DHT22;9320;50.256;19.026;2023-07-29T15:11:22;27.70;69.00
18388;DHT22;9320;50.256;19.026;2023-07-29T15:13:50;27.60;69.30
18388;DHT22;9320;50.256;19.026;2023-07-29T15:16:18;27.70;69.10
18388;DHT22;9320;50.256;19.026;2023-07-29T15:18:48;27.70;68.90
18388;DHT22;9320;50.256;19.026;2023-07-29T15:21:16;27.80;69.60
18388;DHT22;9320;50.256;19.026;2023-07-29T15:23:44;27.70;70.10
18388;DHT22;9320;50.256;19.026;2023-07-29T15:26:13;27.70;70.60
18388;DHT22;9320;50.256;19.026;2023-07-29T15:28:41;27.70;70.80
18388;DHT22;9320;50.256;19.026;2023-07-29T15:31:09;27.70;71.20
18388;DHT22;9320;50.256;19.026;2023-07-29T15:33:37;27.70;71.40
18388;DHT22;9320;50.256;19.026;2023-07-29T15:36:06;27.60;71.90
18388;DHT22;9320;50.256;19.026;2023-07-29T15:38:34;27.60;71.10
18388;DHT22;9320;50.256;19.026;2023-07-29T15:41:03;27.60;69.90
18388;DHT22;9320;50.256;19.026;2023-07-29T15:43:31;27.60;70.20
18388;DHT22;9320;50.256;19.026;2023-07-29T15:45:59;27.70;69.80